sensor_id;sensor_type;location;lat;lon;timestamp;temperature;humidity
19248;DHT22;9758;48.640;8.148;2023-08-30T00:00:45;16.90;57.40
19248;DHT22;9758;48.640;8.148;2023-08-30T00:03:13;16.90;57.30
19248;DHT22;9758;48.640;8.148;2023-08-30T00:05:40;16.90;57.40
19248;DHT22;9758;48.640;8.148;2023-08-30T00:08:09;16.90;57.40
19248;DHT22;9758;48.640;8.148;2023-08-30T00:10:35;16.90;57.40
19248;DHT22;9758;48.640;8.148;2023-08-30T00:13:03;16.90;57.40
19248;DHT22;9758;48.640;8.148;2023-08-30T00:15:30;16.90;57.40
19248;DHT22;9758;48.640;8.148;2023-08-30T00:17:57;16.90;57.40
19248;DHT22;9758;48.640;8.148;2023-08-30T00:20:24;16.90;57.40
19248;DHT22;9758;48.640;8.148;2023-08-30T00:22:51;16.90;57.40
19248;DHT22;9758;48.640;8.148;2023-08-30T00:25:19;16.90;57.50
19248;DHT22;9758;48.640;8.148;2023-08-30T00:27:46;16.90;57.40
19248;DHT22;9758;48.640;8.148;2023-08-30T00:30:13;17.00;57.50
19248;DHT22;9758;48.640;8.148;2023-08-30T00:32:39;16.90;57.40
19248;DHT22;9758;48.640;8.148;2023-08-30T00:35:07;17.00;57.50
19248;DHT22;9758;48.640;8.148;2023-08-30T00:37:34;17.00;57.50
19248;DHT22;9758;48.640;8.148;2023-08-30T00:40:01;17.00;57.50
19248;DHT22;9758;48.640;8.148;2023-08-30T00:42:29;17.00;57.50
19248;DHT22;9758;48.640;8.148;2023-08-30T00:44:56;17.00;57.50
19248;DHT22;9758;48.640;8.148;2023-08-30T00:47:23;17.00;57.50
19248;DHT22;9758;48.640;8.148;2023-08-30T00:49:50;17.00;57.50
19248;DHT22;9758;48.640;8.148;2023-08-30T00:52:17;17.00;57.50
19248;DHT22;9758;48.640;8.148;2023-08-30T00:54:44;17.00;57.50
19248;DHT22;9758;48.640;8.148;2023-08-30T00:57:12;17.00;57.50
19248;DHT22;9758;48.640;8.148;2023-08-30T00:59:40;17.00;57.50
19248;DHT22;9758;48.640;8.148;2023-08-30T01:02:07;17.00;57.50
19248;DHT22;9758;48.640;8.148;2023-08-30T01:04:34;17.00;57.50
19248;DHT22;9758;48.640;8.148;2023-08-30T01:07:01;17.00;57.50
19248;DHT22;9758;48.640;8.148;2023-08-30T01:09:28;17.10;57.50
19248;DHT22;9758;48.640;8.148;2023-08-30T01:12:00;17.00;57.50
19248;DHT22;9758;48.640;8.148;2023-08-30T01:14:38;17.10;57.50
19248;DHT22;9758;48.640;8.148;2023-08-30T01:17:07;17.10;57.50
19248;DHT22;9758;48.640;8.148;2023-08-30T01:19:42;17.10;57.50
19248;DHT22;9758;48.640;8.148;2023-08-30T01:22:17;17.10;57.50
19248;DHT22;9758;48.640;8.148;2023-08-30T01:24:55;17.10;57.50
19248;DHT22;9758;48.640;8.148;2023-08-30T01:27:26;17.10;57.50
19248;DHT22;9758;48.640;8.148;2023-08-30T01:29:54;17.10;57.40
19248;DHT22;9758;48.640;8.148;2023-08-30T01:32:23;17.10;57.40
19248;DHT22;9758;48.640;8.148;2023-08-30T01:34:51;17.10;57.40
19248;DHT22;9758;48.640;8.148;2023-08-30T01:37:19;17.10;57.40
19248;DHT22;9758;48.640;8.148;2023-08-30T01:39:46;17.20;57.50
19248;DHT22;9758;48.640;8.148;2023-08-30T01:42:13;17.20;57.40
19248;DHT22;9758;48.640;8.148;2023-08-30T01:44:45;17.20;57.50
19248;DHT22;9758;48.640;8.148;2023-08-30T01:47:11;17.10;57.40
19248;DHT22;9758;48.640;8.148;2023-08-30T01:49:38;17.20;57.50
19248;DHT22;9758;48.640;8.148;2023-08-30T01:52:06;17.20;57.50
19248;DHT22;9758;48.640;8.148;2023-08-30T01:54:34;17.20;57.40
19248;DHT22;9758;48.640;8.148;2023-08-30T01:57:01;17.20;57.40
19248;DHT22;9758;48.640;8.148;2023-08-30T01:59:27;17.20;57.40
19248;DHT22;9758;48.640;8.148;2023-08-30T02:01:57;17.20;57.50
19248;DHT22;9758;48.640;8.148;2023-08-30T02:04:24;17.20;57.40
19248;DHT22;9758;48.640;8.148;2023-08-30T02:06:55;17.20;57.40
19248;DHT22;9758;48.640;8.148;2023-08-30T02:09:28;17.20;57.40
19248;DHT22;9758;48.640;8.148;2023-08-30T02:11:57;17.30;57.50
19248;DHT22;9758;48.640;8.148;2023-08-30T02:14:27;17.30;57.40
19248;DHT22;9758;48.640;8.148;2023-08-30T02:16:57;17.30;58.00
19248;DHT22;9758;48.640;8.148;2023-08-30T02:19:24;17.20;57.40
19248;DHT22;9758;48.640;8.148;2023-08-30T02:21:50;17.20;57.40
19248;DHT22;9758;48.640;8.148;2023-08-30T02:24:17;17.20;57.40
19248;DHT22;9758;48.640;8.148;2023-08-30T02:26:44;17.30;57.40
19248;DHT22;9758;48.640;8.148;2023-08-30T02:29:11;17.30;57.40
19248;DHT22;9758;48.640;8.148;2023-08-30T02:31:38;17.20;57.40
19248;DHT22;9758;48.640;8.148;2023-08-30T02:34:07;17.20;57.40
19248;DHT22;9758;48.640;8.148;2023-08-30T02:36:33;17.20;57.40
19248;DHT22;9758;48.640;8.148;2023-08-30T02:39:00;17.20;57.40
19248;DHT22;9758;48.640;8.148;2023-08-30T02:41:27;17.30;57.40
19248;DHT22;9758;48.640;8.148;2023-08-30T02:43:54;17.30;57.40
19248;DHT22;9758;48.640;8.148;2023-08-30T02:46:20;17.20;57.30
19248;DHT22;9758;48.640;8.148;2023-08-30T02:48:47;17.20;57.40
19248;DHT22;9758;48.640;8.148;2023-08-30T02:51:15;17.20;57.40
19248;DHT22;9758;48.640;8.148;2023-08-30T02:53:42;17.20;57.40
19248;DHT22;9758;48.640;8.148;2023-08-30T02:56:09;17.30;57.40
19248;DHT22;9758;48.640;8.148;2023-08-30T02:58:36;17.20;57.40
19248;DHT22;9758;48.640;8.148;2023-08-30T03:01:03;17.20;57.40
19248;DHT22;9758;48.640;8.148;2023-08-30T03:03:30;17.20;57.40
19248;DHT22;9758;48.640;8.148;2023-08-30T03:05:57;17.20;57.40
19248;DHT22;9758;48.640;8.148;2023-08-30T03:08:28;17.20;57.50
19248;DHT22;9758;48.640;8.148;2023-08-30T03:10:55;17.20;57.50
19248;DHT22;9758;48.640;8.148;2023-08-30T03:13:22;17.20;57.50
19248;DHT22;9758;48.640;8.148;2023-08-30T03:15:48;17.20;58.10
19248;DHT22;9758;48.640;8.148;2023-08-30T03:18:15;17.20;57.50
19248;DHT22;9758;48.640;8.148;2023-08-30T03:20:42;17.20;57.50
19248;DHT22;9758;48.640;8.148;2023-08-30T03:23:08;17.20;57.50
19248;DHT22;9758;48.640;8.148;2023-08-30T03:25:37;17.20;57.50
19248;DHT22;9758;48.640;8.148;2023-08-30T03:28:04;17.20;57.50
19248;DHT22;9758;48.640;8.148;2023-08-30T03:30:31;17.20;57.60
19248;DHT22;9758;48.640;8.148;2023-08-30T03:32:58;17.20;57.60
19248;DHT22;9758;48.640;8.148;2023-08-30T03:35:25;17.20;57.60
19248;DHT22;9758;48.640;8.148;2023-08-30T03:37:52;17.10;57.50
19248;DHT22;9758;48.640;8.148;2023-08-30T03:40:19;17.10;57.60
19248;DHT22;9758;48.640;8.148;2023-08-30T03:42:48;17.10;57.50
19248;DHT22;9758;48.640;8.148;2023-08-30T03:45:15;17.10;57.60
19248;DHT22;9758;48.640;8.148;2023-08-30T03:47:42;17.10;57.70
19248;DHT22;9758;48.640;8.148;2023-08-30T03:50:09;17.10;57.60
19248;DHT22;9758;48.640;8.148;2023-08-30T03:52:35;17.10;57.70
19248;DHT22;9758;48.640;8.148;2023-08-30T03:55:02;17.10;57.70
19248;DHT22;9758;48.640;8.148;2023-08-30T03:57:29;17.10;57.70
19248;DHT22;9758;48.640;8.148;2023-08-30T03:59:58;17.10;57.70
19248;DHT22;9758;48.640;8.148;2023-08-30T04:02:25;17.20;57.70
19248;DHT22;9758;48.640;8.148;2023-08-30T04:04:52;17.20;57.70
19248;DHT22;9758;48.640;8.148;2023-08-30T04:07:19;17.10;57.70
19248;DHT22;9758;48.640;8.148;2023-08-30T04:09:45;17.20;57.70
19248;DHT22;9758;48.640;8.148;2023-08-30T04:12:12;17.20;57.70
19248;DHT22;9758;48.640;8.148;2023-08-30T04:14:39;17.10;57.70
19248;DHT22;9758;48.640;8.148;2023-08-30T04:17:07;17.10;57.70
19248;DHT22;9758;48.640;8.148;2023-08-30T04:19:34;17.10;57.70
19248;DHT22;9758;48.640;8.148;2023-08-30T04:22:01;17.10;57.70
19248;DHT22;9758;48.640;8.148;2023-08-30T04:24:28;17.10;57.70
19248;DHT22;9758;48.640;8.148;2023-08-30T04:26:55;17.20;57.80
19248;DHT22;9758;48.640;8.148;2023-08-30T04:29:21;17.10;57.70
19248;DHT22;9758;48.640;8.148;2023-08-30T04:31:48;17.10;57.70
19248;DHT22;9758;48.640;8.148;2023-08-30T04:34:16;17.10;57.70
19248;DHT22;9758;48.640;8.148;2023-08-30T04:36:44;17.10;57.70
19248;DHT22;9758;48.640;8.148;2023-08-30T04:39:12;17.20;57.80
19248;DHT22;9758;48.640;8.148;2023-08-30T04:41:39;17.20;57.80
19248;DHT22;9758;48.640;8.148;2023-08-30T04:44:05;17.10;57.70
19248;DHT22;9758;48.640;8.148;2023-08-30T04:46:32;17.10;57.70
19248;DHT22;9758;48.640;8.148;2023-08-30T04:48:59;17.20;57.80
19248;DHT22;9758;48.640;8.148;2023-08-30T04:51:28;17.10;57.70
19248;DHT22;9758;48.640;8.148;2023-08-30T04:53:54;17.10;57.80
19248;DHT22;9758;48.640;8.148;2023-08-30T04:56:21;17.10;57.70
19248;DHT22;9758;48.640;8.148;2023-08-30T04:58:48;17.20;57.80
19248;DHT22;9758;48.640;8.148;2023-08-30T05:01:15;17.20;57.80
19248;DHT22;9758;48.640;8.148;2023-08-30T05:03:42;17.20;57.80
19248;DHT22;9758;48.640;8.148;2023-08-30T05:06:09;17.20;57.80
19248;DHT22;9758;48.640;8.148;2023-08-30T05:08:43;17.20;57.80
19248;DHT22;9758;48.640;8.148;2023-08-30T05:11:10;17.20;57.80
19248;DHT22;9758;48.640;8.148;2023-08-30T05:13:37;17.30;57.80
19248;DHT22;9758;48.640;8.148;2023-08-30T05:16:04;17.20;57.80
19248;DHT22;9758;48.640;8.148;2023-08-30T05:18:30;17.20;57.80
19248;DHT22;9758;48.640;8.148;2023-08-30T05:20:57;17.30;57.80
19248;DHT22;9758;48.640;8.148;2023-08-30T05:23:24;17.30;57.80
19248;DHT22;9758;48.640;8.148;2023-08-30T05:25:52;17.40;57.80
19248;DHT22;9758;48.640;8.148;2023-08-30T05:28:19;17.40;57.80
19248;DHT22;9758;48.640;8.148;2023-08-30T05:30:46;17.40;57.80
19248;DHT22;9758;48.640;8.148;2023-08-30T05:33:13;17.40;57.80
19248;DHT22;9758;48.640;8.148;2023-08-30T05:35:40;17.40;57.80
19248;DHT22;9758;48.640;8.148;2023-08-30T05:38:07;17.50;57.80
19248;DHT22;9758;48.640;8.148;2023-08-30T05:40:34;17.50;57.80
19248;DHT22;9758;48.640;8.148;2023-08-30T05:43:03;17.50;57.80
19248;DHT22;9758;48.640;8.148;2023-08-30T05:45:30;17.50;57.80
19248;DHT22;9758;48.640;8.148;2023-08-30T05:47:57;17.50;57.70
19248;DHT22;9758;48.640;8.148;2023-08-30T05:50:24;17.60;57.80
19248;DHT22;9758;48.640;8.148;2023-08-30T05:52:51;17.60;57.80
19248;DHT22;9758;48.640;8.148;2023-08-30T05:55:20;17.60;57.80
19248;DHT22;9758;48.640;8.148;2023-08-30T05:57:47;17.50;57.70
19248;DHT22;9758;48.640;8.148;2023-08-30T06:00:16;17.60;57.80
19248;DHT22;9758;48.640;8.148;2023-08-30T06:02:43;17.60;57.80
19248;DHT22;9758;48.640;8.148;2023-08-30T06:05:10;17.60;57.70
19248;DHT22;9758;48.640;8.148;2023-08-30T06:07:37;17.70;57.80
19248;DHT22;9758;48.640;8.148;2023-08-30T06:10:04;17.70;57.80
19248;DHT22;9758;48.640;8.148;2023-08-30T06:12:31;17.80;57.80
19248;DHT22;9758;48.640;8.148;2023-08-30T06:14:58;17.80;57.80
19248;DHT22;9758;48.640;8.148;2023-08-30T06:17:26;17.80;57.80
19248;DHT22;9758;48.640;8.148;2023-08-30T06:19:53;17.90;57.80
19248;DHT22;9758;48.640;8.148;2023-08-30T06:22:20;17.90;57.80
19248;DHT22;9758;48.640;8.148;2023-08-30T06:24:46;17.90;57.80
19248;DHT22;9758;48.640;8.148;2023-08-30T06:27:13;18.00;57.80
19248;DHT22;9758;48.640;8.148;2023-08-30T06:29:40;18.00;57.70
19248;DHT22;9758;48.640;8.148;2023-08-30T06:32:07;18.00;57.70
19248;DHT22;9758;48.640;8.148;2023-08-30T06:34:35;18.00;58.30
19248;DHT22;9758;48.640;8.148;2023-08-30T06:37:02;18.10;57.60
19248;DHT22;9758;48.640;8.148;2023-08-30T06:39:33;18.10;57.60
19248;DHT22;9758;48.640;8.148;2023-08-30T06:42:00;18.10;57.60
19248;DHT22;9758;48.640;8.148;2023-08-30T06:44:27;18.10;57.60
19248;DHT22;9758;48.640;8.148;2023-08-30T06:46:55;18.10;57.60
19248;DHT22;9758;48.640;8.148;2023-08-30T06:49:22;18.20;57.70
19248;DHT22;9758;48.640;8.148;2023-08-30T06:51:51;18.20;57.60
19248;DHT22;9758;48.640;8.148;2023-08-30T06:54:18;18.20;57.60
19248;DHT22;9758;48.640;8.148;2023-08-30T06:56:57;18.20;57.60
19248;DHT22;9758;48.640;8.148;2023-08-30T06:59:25;18.30;57.60
19248;DHT22;9758;48.640;8.148;2023-08-30T07:02:06;18.30;57.90
19248;DHT22;9758;48.640;8.148;2023-08-30T07:04:33;18.40;57.80
19248;DHT22;9758;48.640;8.148;2023-08-30T07:07:01;18.40;57.70
19248;DHT22;9758;48.640;8.148;2023-08-30T07:09:28;18.50;57.60
19248;DHT22;9758;48.640;8.148;2023-08-30T07:11:57;18.60;57.50
19248;DHT22;9758;48.640;8.148;2023-08-30T07:14:24;18.60;57.40
19248;DHT22;9758;48.640;8.148;2023-08-30T07:16:51;18.60;57.20
19248;DHT22;9758;48.640;8.148;2023-08-30T07:19:18;18.70;57.30
19248;DHT22;9758;48.640;8.148;2023-08-30T07:21:45;18.70;57.30
19248;DHT22;9758;48.640;8.148;2023-08-30T07:24:13;18.70;57.30
19248;DHT22;9758;48.640;8.148;2023-08-30T07:26:40;18.70;57.20
19248;DHT22;9758;48.640;8.148;2023-08-30T07:29:08;18.80;57.20
19248;DHT22;9758;48.640;8.148;2023-08-30T07:31:35;18.80;57.20
19248;DHT22;9758;48.640;8.148;2023-08-30T07:34:02;18.90;57.20
19248;DHT22;9758;48.640;8.148;2023-08-30T07:36:30;18.90;57.20
19248;DHT22;9758;48.640;8.148;2023-08-30T07:38:58;19.00;57.20
19248;DHT22;9758;48.640;8.148;2023-08-30T07:41:27;19.00;57.10
19248;DHT22;9758;48.640;8.148;2023-08-30T07:43:55;19.00;57.00
19248;DHT22;9758;48.640;8.148;2023-08-30T07:46:22;19.10;57.00
19248;DHT22;9758;48.640;8.148;2023-08-30T07:48:49;19.10;57.00
19248;DHT22;9758;48.640;8.148;2023-08-30T07:51:16;19.10;57.00
19248;DHT22;9758;48.640;8.148;2023-08-30T07:53:43;19.10;57.00
19248;DHT22;9758;48.640;8.148;2023-08-30T07:56:10;19.10;57.10
19248;DHT22;9758;48.640;8.148;2023-08-30T07:58:40;19.10;57.10
19248;DHT22;9758;48.640;8.148;2023-08-30T08:01:07;19.20;57.00
19248;DHT22;9758;48.640;8.148;2023-08-30T08:03:34;19.20;57.00
19248;DHT22;9758;48.640;8.148;2023-08-30T08:06:02;19.20;57.10
19248;DHT22;9758;48.640;8.148;2023-08-30T08:08:30;19.20;57.20
19248;DHT22;9758;48.640;8.148;2023-08-30T08:10:59;19.30;57.10
19248;DHT22;9758;48.640;8.148;2023-08-30T08:13:26;19.40;57.10
19248;DHT22;9758;48.640;8.148;2023-08-30T08:15:55;19.40;57.00
19248;DHT22;9758;48.640;8.148;2023-08-30T08:18:22;19.50;57.00
19248;DHT22;9758;48.640;8.148;2023-08-30T08:20:50;19.50;57.00
19248;DHT22;9758;48.640;8.148;2023-08-30T08:23:17;19.50;56.90
19248;DHT22;9758;48.640;8.148;2023-08-30T08:25:44;19.60;56.90
19248;DHT22;9758;48.640;8.148;2023-08-30T08:28:10;19.60;56.90
19248;DHT22;9758;48.640;8.148;2023-08-30T08:30:37;19.70;56.90
19248;DHT22;9758;48.640;8.148;2023-08-30T08:33:06;19.70;56.80
19248;DHT22;9758;48.640;8.148;2023-08-30T08:35:32;19.80;56.80
19248;DHT22;9758;48.640;8.148;2023-08-30T08:37:59;19.80;56.80
19248;DHT22;9758;48.640;8.148;2023-08-30T08:40:26;19.90;56.70
19248;DHT22;9758;48.640;8.148;2023-08-30T08:42:53;20.00;56.60
19248;DHT22;9758;48.640;8.148;2023-08-30T08:45:21;20.10;56.60
19248;DHT22;9758;48.640;8.148;2023-08-30T08:47:49;20.10;56.60
19248;DHT22;9758;48.640;8.148;2023-08-30T08:50:20;20.20;56.50
19248;DHT22;9758;48.640;8.148;2023-08-30T08:52:48;20.20;56.50
19248;DHT22;9758;48.640;8.148;2023-08-30T08:55:17;20.20;56.50
19248;DHT22;9758;48.640;8.148;2023-08-30T08:57:46;20.30;56.50
19248;DHT22;9758;48.640;8.148;2023-08-30T09:00:13;20.40;56.60
19248;DHT22;9758;48.640;8.148;2023-08-30T09:02:42;20.40;56.40
19248;DHT22;9758;48.640;8.148;2023-08-30T09:05:10;20.40;56.30
19248;DHT22;9758;48.640;8.148;2023-08-30T09:07:38;20.40;56.40
19248;DHT22;9758;48.640;8.148;2023-08-30T09:10:05;20.40;56.50
19248;DHT22;9758;48.640;8.148;2023-08-30T09:12:33;20.50;56.50
19248;DHT22;9758;48.640;8.148;2023-08-30T09:15:00;20.50;56.40
19248;DHT22;9758;48.640;8.148;2023-08-30T09:17:35;20.50;56.20
19248;DHT22;9758;48.640;8.148;2023-08-30T09:20:07;20.40;56.30
19248;DHT22;9758;48.640;8.148;2023-08-30T09:22:39;20.40;56.50
19248;DHT22;9758;48.640;8.148;2023-08-30T09:25:09;20.50;56.60
19248;DHT22;9758;48.640;8.148;2023-08-30T09:27:37;20.50;57.20
19248;DHT22;9758;48.640;8.148;2023-08-30T09:30:07;20.60;56.60
19248;DHT22;9758;48.640;8.148;2023-08-30T09:32:39;20.70;56.50
19248;DHT22;9758;48.640;8.148;2023-08-30T09:35:07;20.80;56.20
19248;DHT22;9758;48.640;8.148;2023-08-30T09:37:35;20.80;56.30
19248;DHT22;9758;48.640;8.148;2023-08-30T09:40:05;20.90;56.30
19248;DHT22;9758;48.640;8.148;2023-08-30T09:42:32;21.00;56.30
19248;DHT22;9758;48.640;8.148;2023-08-30T09:44:59;21.00;56.20
19248;DHT22;9758;48.640;8.148;2023-08-30T09:47:26;21.10;56.10
19248;DHT22;9758;48.640;8.148;2023-08-30T09:49:55;21.10;56.10
19248;DHT22;9758;48.640;8.148;2023-08-30T09:52:24;21.20;56.00
19248;DHT22;9758;48.640;8.148;2023-08-30T09:54:52;21.20;56.10
19248;DHT22;9758;48.640;8.148;2023-08-30T09:57:21;21.30;56.10
19248;DHT22;9758;48.640;8.148;2023-08-30T09:59:48;21.40;56.00
19248;DHT22;9758;48.640;8.148;2023-08-30T10:02:15;21.40;56.00
19248;DHT22;9758;48.640;8.148;2023-08-30T10:04:43;21.50;55.80
19248;DHT22;9758;48.640;8.148;2023-08-30T10:07:11;21.60;55.70
19248;DHT22;9758;48.640;8.148;2023-08-30T10:09:38;21.60;56.30
19248;DHT22;9758;48.640;8.148;2023-08-30T10:12:06;21.60;55.50
19248;DHT22;9758;48.640;8.148;2023-08-30T10:14:35;21.60;55.50
19248;DHT22;9758;48.640;8.148;2023-08-30T10:17:03;21.60;55.60
19248;DHT22;9758;48.640;8.148;2023-08-30T10:19:31;21.70;55.60
19248;DHT22;9758;48.640;8.148;2023-08-30T10:22:01;21.70;55.60
19248;DHT22;9758;48.640;8.148;2023-08-30T10:24:32;21.70;55.40
19248;DHT22;9758;48.640;8.148;2023-08-30T10:27:01;21.70;55.20
19248;DHT22;9758;48.640;8.148;2023-08-30T10:29:29;21.70;55.60
19248;DHT22;9758;48.640;8.148;2023-08-30T10:32:03;21.70;55.50
19248;DHT22;9758;48.640;8.148;2023-08-30T10:34:32;21.70;55.40
19248;DHT22;9758;48.640;8.148;2023-08-30T10:37:00;21.80;55.50
19248;DHT22;9758;48.640;8.148;2023-08-30T10:39:33;21.80;55.20
19248;DHT22;9758;48.640;8.148;2023-08-30T10:42:06;21.90;55.30
19248;DHT22;9758;48.640;8.148;2023-08-30T10:44:33;21.90;55.30
19248;DHT22;9758;48.640;8.148;2023-08-30T10:47:03;22.00;55.30
19248;DHT22;9758;48.640;8.148;2023-08-30T10:49:39;22.10;55.20
19248;DHT22;9758;48.640;8.148;2023-08-30T10:52:12;22.10;55.10
19248;DHT22;9758;48.640;8.148;2023-08-30T10:54:38;22.20;54.50
19248;DHT22;9758;48.640;8.148;2023-08-30T10:57:05;22.10;54.40
19248;DHT22;9758;48.640;8.148;2023-08-30T10:59:38;22.10;54.50
19248;DHT22;9758;48.640;8.148;2023-08-30T11:02:07;22.10;54.90
19248;DHT22;9758;48.640;8.148;2023-08-30T11:04:39;22.10;54.90
19248;DHT22;9758;48.640;8.148;2023-08-30T11:07:08;22.10;54.70
19248;DHT22;9758;48.640;8.148;2023-08-30T11:09:37;22.10;54.70
19248;DHT22;9758;48.640;8.148;2023-08-30T11:12:06;22.10;54.70
19248;DHT22;9758;48.640;8.148;2023-08-30T11:14:33;22.10;55.30
19248;DHT22;9758;48.640;8.148;2023-08-30T11:16:59;22.10;54.70
19248;DHT22;9758;48.640;8.148;2023-08-30T11:19:29;22.20;54.70
19248;DHT22;9758;48.640;8.148;2023-08-30T11:21:57;22.30;54.80
19248;DHT22;9758;48.640;8.148;2023-08-30T11:24:24;22.30;54.70
19248;DHT22;9758;48.640;8.148;2023-08-30T11:26:53;22.40;54.40
19248;DHT22;9758;48.640;8.148;2023-08-30T11:29:20;22.50;54.40
19248;DHT22;9758;48.640;8.148;2023-08-30T11:31:46;22.50;54.30
19248;DHT22;9758;48.640;8.148;2023-08-30T11:34:13;22.60;54.10
19248;DHT22;9758;48.640;8.148;2023-08-30T11:36:41;22.60;54.30
19248;DHT22;9758;48.640;8.148;2023-08-30T11:39:09;22.60;54.20
19248;DHT22;9758;48.640;8.148;2023-08-30T11:41:38;22.70;54.20
19248;DHT22;9758;48.640;8.148;2023-08-30T11:44:05;22.80;54.10
19248;DHT22;9758;48.640;8.148;2023-08-30T11:46:32;22.80;54.10
19248;DHT22;9758;48.640;8.148;2023-08-30T11:48:59;22.90;54.00
19248;DHT22;9758;48.640;8.148;2023-08-30T11:51:26;23.00;54.00
19248;DHT22;9758;48.640;8.148;2023-08-30T11:53:54;23.00;53.80
19248;DHT22;9758;48.640;8.148;2023-08-30T11:56:21;23.10;53.90
19248;DHT22;9758;48.640;8.148;2023-08-30T11:58:48;23.20;53.90
19248;DHT22;9758;48.640;8.148;2023-08-30T12:01:18;23.30;53.70
19248;DHT22;9758;48.640;8.148;2023-08-30T12:03:45;23.40;53.40
19248;DHT22;9758;48.640;8.148;2023-08-30T12:06:16;23.40;53.40
19248;DHT22;9758;48.640;8.148;2023-08-30T12:08:43;23.50;53.40
19248;DHT22;9758;48.640;8.148;2023-08-30T12:11:19;23.60;53.40
19248;DHT22;9758;48.640;8.148;2023-08-30T12:13:46;23.70;53.60
19248;DHT22;9758;48.640;8.148;2023-08-30T12:16:17;23.80;53.40
19248;DHT22;9758;48.640;8.148;2023-08-30T12:18:44;23.90;53.90
19248;DHT22;9758;48.640;8.148;2023-08-30T12:21:13;24.00;53.00
19248;DHT22;9758;48.640;8.148;2023-08-30T12:23:40;24.00;52.80
19248;DHT22;9758;48.640;8.148;2023-08-30T12:26:08;23.90;52.00
19248;DHT22;9758;48.640;8.148;2023-08-30T12:28:37;23.70;52.30
19248;DHT22;9758;48.640;8.148;2023-08-30T12:31:05;23.60;52.70
19248;DHT22;9758;48.640;8.148;2023-08-30T12:33:33;23.50;52.90
19248;DHT22;9758;48.640;8.148;2023-08-30T12:36:00;23.40;52.80
19248;DHT22;9758;48.640;8.148;2023-08-30T12:38:27;23.40;53.10
19248;DHT22;9758;48.640;8.148;2023-08-30T12:40:54;23.40;53.20
19248;DHT22;9758;48.640;8.148;2023-08-30T12:43:22;23.50;53.30
19248;DHT22;9758;48.640;8.148;2023-08-30T12:45:50;23.60;53.00
19248;DHT22;9758;48.640;8.148;2023-08-30T12:48:40;23.60;53.00
19248;DHT22;9758;48.640;8.148;2023-08-30T12:51:07;23.60;52.70
19248;DHT22;9758;48.640;8.148;2023-08-30T12:53:33;23.70;52.90
19248;DHT22;9758;48.640;8.148;2023-08-30T12:56:00;23.70;52.90
19248;DHT22;9758;48.640;8.148;2023-08-30T12:58:27;23.80;52.80
19248;DHT22;9758;48.640;8.148;2023-08-30T13:00:55;23.80;52.40
19248;DHT22;9758;48.640;8.148;2023-08-30T13:03:22;23.70;52.40
19248;DHT22;9758;48.640;8.148;2023-08-30T13:05:49;23.70;52.60
19248;DHT22;9758;48.640;8.148;2023-08-30T13:08:15;23.80;52.80
19248;DHT22;9758;48.640;8.148;2023-08-30T13:10:42;23.90;52.60
19248;DHT22;9758;48.640;8.148;2023-08-30T13:13:09;23.90;52.70
19248;DHT22;9758;48.640;8.148;2023-08-30T13:15:36;24.00;52.40
19248;DHT22;9758;48.640;8.148;2023-08-30T13:18:04;24.10;52.50
19248;DHT22;9758;48.640;8.148;2023-08-30T13:20:31;24.10;52.20
19248;DHT22;9758;48.640;8.148;2023-08-30T13:22:57;24.10;52.20
19248;DHT22;9758;48.640;8.148;2023-08-30T13:25:24;24.10;52.30
19248;DHT22;9758;48.640;8.148;2023-08-30T13:27:52;24.20;52.20
19248;DHT22;9758;48.640;8.148;2023-08-30T13:30:19;24.10;51.80
19248;DHT22;9758;48.640;8.148;2023-08-30T13:32:46;24.00;51.90
19248;DHT22;9758;48.640;8.148;2023-08-30T13:35:14;24.00;51.90
19248;DHT22;9758;48.640;8.148;2023-08-30T13:37:40;23.90;52.00
19248;DHT22;9758;48.640;8.148;2023-08-30T13:40:08;23.90;51.90
19248;DHT22;9758;48.640;8.148;2023-08-30T13:42:35;23.80;51.90
19248;DHT22;9758;48.640;8.148;2023-08-30T13:45:02;23.70;51.90
19248;DHT22;9758;48.640;8.148;2023-08-30T13:47:29;23.60;51.90
19248;DHT22;9758;48.640;8.148;2023-08-30T13:49:56;23.50;51.90
19248;DHT22;9758;48.640;8.148;2023-08-30T13:52:26;23.40;51.90
19248;DHT22;9758;48.640;8.148;2023-08-30T13:54:54;23.30;51.90
19248;DHT22;9758;48.640;8.148;2023-08-30T13:57:21;23.20;52.20
19248;DHT22;9758;48.640;8.148;2023-08-30T13:59:48;23.10;52.30
19248;DHT22;9758;48.640;8.148;2023-08-30T14:02:14;23.00;52.40
19248;DHT22;9758;48.640;8.148;2023-08-30T14:04:41;23.00;53.10
19248;DHT22;9758;48.640;8.148;2023-08-30T14:07:08;22.90;52.40
19248;DHT22;9758;48.640;8.148;2023-08-30T14:09:38;22.90;52.50
19248;DHT22;9758;48.640;8.148;2023-08-30T14:12:06;22.90;52.70
19248;DHT22;9758;48.640;8.148;2023-08-30T14:14:32;22.90;52.80
19248;DHT22;9758;48.640;8.148;2023-08-30T14:16:59;22.90;52.80
19248;DHT22;9758;48.640;8.148;2023-08-30T14:19:26;23.00;52.90
19248;DHT22;9758;48.640;8.148;2023-08-30T14:21:52;23.10;53.00
19248;DHT22;9758;48.640;8.148;2023-08-30T14:24:21;23.20;52.90
19248;DHT22;9758;48.640;8.148;2023-08-30T14:26:49;23.30;52.80
19248;DHT22;9758;48.640;8.148;2023-08-30T14:29:20;23.40;52.70
19248;DHT22;9758;48.640;8.148;2023-08-30T14:31:47;23.50;52.70
19248;DHT22;9758;48.640;8.148;2023-08-30T14:34:14;23.60;52.70
19248;DHT22;9758;48.640;8.148;2023-08-30T14:36:41;23.60;52.70
19248;DHT22;9758;48.640;8.148;2023-08-30T14:39:08;23.80;52.70
19248;DHT22;9758;48.640;8.148;2023-08-30T14:41:35;23.90;52.50
19248;DHT22;9758;48.640;8.148;2023-08-30T14:44:04;24.00;52.40
19248;DHT22;9758;48.640;8.148;2023-08-30T14:46:31;24.10;52.10
19248;DHT22;9758;48.640;8.148;2023-08-30T14:48:58;24.10;51.90
19248;DHT22;9758;48.640;8.148;2023-08-30T14:51:24;24.00;51.80
19248;DHT22;9758;48.640;8.148;2023-08-30T14:53:51;24.00;51.70
19248;DHT22;9758;48.640;8.148;2023-08-30T14:56:18;24.00;51.60
19248;DHT22;9758;48.640;8.148;2023-08-30T14:58:45;23.90;51.70
19248;DHT22;9758;48.640;8.148;2023-08-30T15:01:16;23.80;51.70
19248;DHT22;9758;48.640;8.148;2023-08-30T15:03:42;23.80;51.80
19248;DHT22;9758;48.640;8.148;2023-08-30T15:06:10;23.70;51.80
19248;DHT22;9758;48.640;8.148;2023-08-30T15:08:36;23.70;51.80
19248;DHT22;9758;48.640;8.148;2023-08-30T15:11:03;23.70;51.90
19248;DHT22;9758;48.640;8.148;2023-08-30T15:13:30;23.70;52.10
19248;DHT22;9758;48.640;8.148;2023-08-30T15:15:57;23.70;52.00
19248;DHT22;9758;48.640;8.148;2023-08-30T15:18:25;23.80;52.10
19248;DHT22;9758;48.640;8.148;2023-08-30T15:20:52;23.90;52.00
19248;DHT22;9758;48.640;8.148;2023-08-30T15:23:19;24.00;51.90
19248;DHT22;9758;48.640;8.148;2023-08-30T15:25:46;24.10;52.10
19248;DHT22;9758;48.640;8.148;2023-08-30T15:28:14;24.30;51.90
19248;DHT22;9758;48.640;8.148;2023-08-30T15:30:42;24.40;51.60
19248;DHT22;9758;48.640;8.148;2023-08-30T15:33:09;24.60;51.70
19248;DHT22;9758;48.640;8.148;2023-08-30T15:35:38;24.80;51.50
19248;DHT22;9758;48.640;8.148;2023-08-30T15:38:05;24.80;51.50
19248;DHT22;9758;48.640;8.148;2023-08-30T15:40:32;25.00;51.20
19248;DHT22;9758;48.640;8.148;2023-08-30T15:43:00;25.00;50.80
19248;DHT22;9758;48.640;8.148;2023-08-30T15:45:26;25.00;50.70
19248;DHT22;9758;48.640;8.148;2023-08-30T15:47:53;24.90;50.80